createdAt,value
2018-03-04T00:01:08.130Z,0.40
2018-03-04T00:03:35.573Z,0.40
2018-03-04T00:06:03.041Z,0.40
2018-03-04T00:08:30.508Z,0.40
2018-03-04T00:10:58.209Z,0.40
2018-03-04T00:13:26.410Z,0.50
2018-03-04T00:15:53.893Z,0.40
2018-03-04T00:18:22.336Z,0.50
2018-03-04T00:20:49.780Z,0.50
2018-03-04T00:23:17.288Z,0.50
2018-03-04T00:25:44.734Z,0.50
2018-03-04T00:28:12.181Z,0.60
2018-03-04T00:30:39.744Z,0.60
2018-03-04T00:33:07.209Z,0.60
2018-03-04T00:35:34.653Z,0.60
2018-03-04T00:38:02.259Z,0.60
2018-03-04T00:40:29.703Z,0.60
2018-03-04T00:42:57.175Z,0.60
2018-03-04T00:45:24.760Z,0.60
2018-03-04T00:47:52.977Z,0.60
2018-03-04T00:50:20.423Z,0.60
2018-03-04T00:52:48.060Z,0.60
2018-03-04T00:55:16.261Z,0.60
2018-03-04T00:57:44.465Z,0.70
2018-03-04T01:00:18.605Z,0.60
2018-03-04T01:02:46.053Z,0.60
2018-03-04T01:05:13.545Z,0.60
2018-03-04T01:07:41.756Z,0.60
2018-03-04T01:10:09.197Z,0.60
2018-03-04T01:12:36.736Z,0.70
2018-03-04T01:15:11.489Z,0.70
2018-03-04T01:17:38.952Z,0.70
2018-03-04T01:20:10.216Z,0.70
2018-03-04T01:22:37.672Z,0.70
2018-03-04T01:25:05.115Z,0.70
2018-03-04T01:27:32.929Z,0.70
2018-03-04T01:30:00.373Z,0.70
2018-03-04T01:32:27.817Z,0.70
2018-03-04T01:34:55.296Z,0.70
2018-03-04T01:37:22.733Z,0.70
2018-03-04T01:39:50.247Z,0.70
2018-03-04T01:42:17.697Z,0.70
2018-03-04T01:44:46.057Z,0.80
2018-03-04T01:47:13.545Z,0.80
2018-03-04T01:49:41.793Z,0.80
2018-03-04T01:52:09.255Z,0.80
2018-03-04T01:54:36.699Z,0.80
2018-03-04T01:57:04.170Z,0.80
2018-03-04T01:59:31.605Z,0.80
2018-03-04T02:01:59.200Z,0.80
2018-03-04T02:04:27.441Z,0.80
2018-03-04T02:06:54.897Z,0.80
2018-03-04T02:09:22.341Z,0.80
2018-03-04T02:11:51.133Z,0.80
2018-03-04T02:14:18.585Z,0.80
2018-03-04T02:16:46.030Z,0.80
2018-03-04T02:19:13.607Z,0.80
2018-03-04T02:21:41.072Z,0.90
2018-03-04T02:29:50.928Z,0.90
2018-03-04T02:32:18.428Z,0.90
2018-03-04T02:34:45.865Z,0.90
2018-03-04T02:37:13.309Z,0.90
2018-03-04T02:39:40.780Z,0.90
2018-03-04T02:42:08.318Z,0.90
2018-03-04T02:44:35.770Z,0.90
2018-03-04T02:47:03.238Z,0.90
2018-03-04T02:49:30.692Z,0.90
2018-03-04T02:51:58.153Z,0.90
2018-03-04T02:54:25.614Z,0.90
2018-03-04T02:56:53.184Z,0.90
2018-03-04T02:59:20.632Z,0.90
2018-03-04T03:01:48.069Z,0.90
2018-03-04T03:04:15.536Z,0.90
2018-03-04T03:06:43.006Z,0.90
2018-03-04T03:09:10.452Z,0.90
2018-03-04T03:11:37.924Z,1.00
2018-03-04T03:14:05.372Z,1.00
2018-03-04T03:16:32.824Z,1.00
2018-03-04T03:19:11.373Z,1.00
2018-03-04T03:21:38.889Z,1.00
2018-03-04T03:24:06.321Z,1.00
2018-03-04T03:26:33.988Z,1.10
2018-03-04T03:29:02.225Z,1.10
2018-03-04T03:31:29.657Z,1.10
2018-03-04T03:34:02.168Z,1.10
2018-03-04T03:36:29.614Z,1.10
2018-03-04T03:38:57.056Z,1.10
2018-03-04T03:41:24.520Z,1.10
2018-03-04T03:43:51.961Z,1.10
2018-03-04T03:46:19.432Z,1.10
2018-03-04T03:48:46.872Z,1.10
2018-03-04T03:51:14.520Z,1.10
2018-03-04T03:53:41.962Z,1.10
2018-03-04T03:56:10.197Z,1.10
2018-03-04T03:58:37.657Z,1.10
2018-03-04T04:01:05.107Z,1.10
2018-03-04T04:03:32.571Z,1.10
2018-03-04T04:06:00.013Z,1.10
2018-03-04T04:08:27.456Z,1.10
2018-03-04T04:10:55.114Z,1.10
2018-03-04T04:13:22.554Z,1.10
2018-03-04T04:15:50.036Z,1.10
2018-03-04T04:18:17.497Z,1.10
2018-03-04T04:20:44.996Z,1.10
2018-03-04T04:23:12.441Z,1.10
2018-03-04T04:25:39.964Z,1.10
2018-03-04T04:28:07.493Z,1.10
2018-03-04T04:30:35.827Z,1.10
2018-03-04T04:33:03.266Z,1.10
2018-03-04T04:35:30.723Z,1.10
2018-03-04T04:37:58.185Z,1.20
2018-03-04T04:40:25.678Z,1.20
2018-03-04T04:42:53.128Z,1.20
2018-03-04T04:45:20.569Z,1.20
2018-03-04T04:47:48.210Z,1.20
2018-03-04T04:50:15.664Z,1.20
2018-03-04T04:52:43.105Z,1.20
2018-03-04T04:55:10.569Z,1.20
2018-03-04T04:57:38.065Z,1.20
2018-03-04T05:00:05.501Z,1.20
2018-03-04T05:02:32.950Z,1.20
2018-03-04T05:05:00.545Z,1.20
2018-03-04T05:07:28.008Z,1.20
2018-03-04T05:09:55.452Z,1.20
2018-03-04T05:12:23.048Z,1.20
2018-03-04T05:14:51.259Z,1.30
2018-03-04T05:17:18.730Z,1.30
2018-03-04T05:19:46.177Z,1.30
2018-03-04T05:22:13.972Z,1.30
2018-03-04T05:24:41.525Z,1.30
2018-03-04T05:27:09.000Z,1.30
2018-03-04T05:29:36.444Z,1.30
2018-03-04T05:32:03.932Z,1.30
2018-03-04T05:34:31.372Z,1.30
2018-03-04T05:36:59.668Z,1.30
2018-03-04T05:39:27.112Z,1.30
2018-03-04T05:41:54.588Z,1.40
2018-03-04T05:44:22.905Z,1.40
2018-03-04T05:46:50.357Z,1.30
2018-03-04T05:49:17.964Z,1.40
2018-03-04T05:51:45.417Z,1.30
2018-03-04T05:54:13.625Z,1.40
2018-03-04T05:56:42.073Z,1.40
2018-03-04T05:59:09.532Z,1.40
2018-03-04T06:01:37.082Z,1.40
2018-03-04T06:04:05.432Z,1.40
2018-03-04T06:06:32.896Z,1.40
2018-03-04T06:09:00.356Z,1.50
2018-03-04T06:11:27.800Z,1.40
2018-03-04T06:13:55.539Z,1.50
2018-03-04T06:16:22.993Z,1.50
2018-03-04T06:18:50.624Z,1.50
2018-03-04T06:21:18.829Z,1.50
2018-03-04T06:23:46.269Z,1.50
2018-03-04T06:26:13.743Z,1.50
2018-03-04T06:28:41.232Z,1.50
2018-03-04T06:31:08.691Z,1.50
2018-03-04T06:33:36.130Z,1.60
2018-03-04T06:36:03.729Z,1.60
2018-03-04T06:38:33.131Z,1.60
2018-03-04T06:41:00.618Z,1.60
2018-03-04T06:43:28.818Z,1.60
2018-03-04T06:45:56.285Z,1.60
2018-03-04T06:48:23.793Z,1.60
2018-03-04T06:50:52.336Z,1.60
2018-03-04T06:53:19.776Z,1.60
2018-03-04T06:55:58.116Z,1.60
2018-03-04T06:58:25.556Z,1.70
2018-03-04T07:00:53.063Z,1.70
2018-03-04T07:03:21.285Z,1.70
2018-03-04T07:05:48.740Z,1.70
2018-03-04T07:08:16.269Z,1.80
2018-03-04T07:10:53.716Z,1.80
2018-03-04T07:13:21.165Z,1.80
2018-03-04T07:15:48.693Z,1.80
2018-03-04T07:18:16.142Z,1.80
2018-03-04T07:20:45.675Z,1.80
2018-03-04T07:23:13.114Z,1.80
2018-03-04T07:25:40.577Z,1.90
2018-03-04T07:28:15.304Z,1.90
2018-03-04T07:30:42.976Z,1.90
2018-03-04T07:33:10.552Z,1.90
2018-03-04T07:35:38.021Z,2.00
2018-03-04T07:38:05.476Z,2.00
2018-03-04T07:40:32.999Z,2.10
2018-03-04T07:43:00.426Z,2.20
2018-03-04T07:45:27.860Z,2.20
2018-03-04T07:47:55.334Z,2.30
2018-03-04T07:50:22.794Z,2.30
2018-03-04T07:52:50.304Z,2.30
2018-03-04T07:55:17.753Z,2.30
2018-03-04T07:57:45.228Z,2.40
2018-03-04T08:00:12.686Z,2.40
2018-03-04T08:02:40.157Z,2.50
2018-03-04T08:05:11.525Z,2.50
2018-03-04T08:07:39.067Z,2.50
2018-03-04T08:10:06.509Z,2.50
2018-03-04T08:12:34.017Z,2.60
2018-03-04T08:15:02.246Z,2.60
2018-03-04T08:17:29.985Z,2.60
2018-03-04T08:19:57.459Z,2.60
2018-03-04T08:22:25.120Z,2.70
2018-03-04T08:25:04.471Z,2.70
2018-03-04T08:27:43.718Z,2.70
2018-03-04T08:30:11.155Z,2.70
2018-03-04T08:32:38.629Z,2.80
2018-03-04T08:35:06.089Z,2.80
2018-03-04T08:37:33.535Z,2.80
2018-03-04T08:40:01.212Z,2.80
2018-03-04T08:42:28.870Z,2.90
2018-03-04T08:44:56.300Z,2.90
2018-03-04T08:47:23.996Z,2.90
2018-03-04T08:49:51.433Z,3.00
2018-03-04T08:52:18.863Z,3.00
2018-03-04T08:54:47.011Z,3.10
2018-03-04T08:57:14.432Z,3.20
2018-03-04T08:59:42.227Z,3.30
2018-03-04T09:02:10.439Z,3.20
2018-03-04T09:04:37.877Z,3.20
2018-03-04T09:07:05.453Z,3.20
2018-03-04T09:09:33.268Z,3.20
2018-03-04T09:12:00.680Z,3.30
2018-03-04T09:14:29.694Z,3.40
2018-03-04T09:16:57.133Z,3.50
2018-03-04T09:19:24.865Z,3.60
2018-03-04T09:21:52.538Z,3.70
2018-03-04T09:24:20.872Z,3.70
2018-03-04T09:26:48.329Z,3.70
2018-03-04T09:29:15.801Z,3.80
2018-03-04T09:31:43.378Z,3.80
2018-03-04T09:34:10.828Z,3.90
2018-03-04T09:36:38.353Z,3.90
2018-03-04T09:39:05.801Z,3.90
2018-03-04T09:41:33.288Z,3.90
2018-03-04T09:44:00.732Z,3.90
2018-03-04T09:46:28.201Z,4.00
2018-03-04T09:48:55.657Z,4.00
2018-03-04T09:51:23.140Z,4.10
2018-03-04T09:53:51.363Z,4.20
2018-03-04T09:56:33.018Z,4.20
2018-03-04T09:59:03.341Z,4.20
2018-03-04T10:01:30.846Z,4.30
2018-03-04T10:04:06.013Z,4.40
2018-03-04T10:06:56.856Z,4.60
2018-03-04T10:09:24.316Z,4.60
2018-03-04T10:11:59.613Z,4.60
2018-03-04T10:17:09.900Z,4.70
2018-03-04T10:19:39.188Z,4.70
2018-03-04T10:22:08.746Z,4.70
2018-03-04T10:24:40.083Z,4.70
2018-03-04T10:27:12.376Z,4.70
2018-03-04T10:29:55.295Z,4.80
2018-03-04T10:32:41.211Z,4.80
2018-03-04T10:35:09.283Z,4.80
2018-03-04T10:37:37.382Z,4.80
2018-03-04T10:40:06.678Z,5.20
2018-03-04T10:42:34.289Z,5.20
2018-03-04T10:45:17.861Z,5.50
2018-03-04T10:47:55.390Z,5.60
2018-03-04T11:17:50.072Z,6.80
2018-03-04T11:20:17.538Z,6.80
2018-03-04T11:22:44.993Z,6.70
2018-03-04T11:25:12.646Z,6.70
2018-03-04T11:27:40.125Z,6.70
2018-03-04T11:30:09.181Z,6.80
2018-03-04T11:32:37.438Z,7.10
2018-03-04T11:35:04.894Z,7.00
2018-03-04T11:37:32.486Z,7.20
2018-03-04T11:40:02.639Z,7.40
2018-03-04T11:42:30.149Z,7.40
2018-03-04T11:44:58.554Z,7.70
2018-03-04T11:47:25.993Z,7.60
2018-03-04T11:49:54.208Z,7.90
2018-03-04T11:52:21.701Z,7.80
2018-03-04T11:54:49.161Z,8.00
2018-03-04T11:57:16.613Z,8.00
2018-03-04T11:59:44.091Z,8.10
2018-03-04T12:02:11.761Z,8.00
2018-03-04T12:04:39.269Z,8.00
2018-03-04T12:07:06.788Z,7.90
2018-03-04T12:09:35.078Z,8.00
2018-03-04T12:12:02.493Z,8.00
2018-03-04T12:14:33.592Z,8.10
2018-03-04T12:17:01.138Z,8.30
2018-03-04T12:19:28.594Z,8.40
2018-03-04T12:22:00.666Z,8.60
2018-03-04T12:24:28.905Z,8.70
2018-03-04T12:26:57.192Z,8.80
2018-03-04T12:29:28.533Z,8.80
2018-03-04T12:31:56.024Z,8.90
2018-03-04T12:34:23.498Z,8.90
2018-03-04T12:36:54.017Z,9.00
2018-03-04T12:39:21.492Z,9.10
2018-03-04T12:41:49.389Z,9.20
2018-03-04T12:44:30.605Z,9.20
2018-03-04T12:46:58.178Z,9.30
2018-03-04T12:49:25.649Z,9.40
2018-03-04T12:51:53.897Z,9.50
2018-03-04T12:54:22.141Z,9.50
2018-03-04T12:56:49.593Z,9.50
2018-03-04T12:59:17.062Z,9.60
2018-03-04T13:01:44.579Z,9.70
2018-03-04T13:04:12.029Z,9.80
2018-03-04T13:06:39.489Z,9.80
2018-03-04T13:09:15.988Z,9.80
2018-03-04T13:11:43.492Z,9.90
2018-03-04T13:14:11.748Z,10.10
2018-03-04T13:16:39.454Z,10.00
2018-03-04T13:19:06.995Z,10.10
2018-03-04T13:21:34.477Z,10.20
2018-03-04T13:24:04.095Z,10.20
2018-03-04T13:26:31.733Z,10.20
2018-03-04T13:28:59.770Z,10.20
2018-03-04T13:31:27.341Z,10.30
2018-03-04T13:33:57.995Z,10.60
2018-03-04T13:36:27.262Z,10.50
2018-03-04T13:38:55.606Z,10.70
2018-03-04T13:41:23.186Z,10.80
2018-03-04T13:43:50.722Z,10.90
2018-03-04T13:46:18.229Z,11.00
2018-03-04T13:48:45.741Z,11.00
2018-03-04T13:51:13.370Z,11.00
2018-03-04T13:53:40.874Z,11.10
2018-03-04T13:56:08.368Z,11.10
2018-03-04T13:58:35.934Z,11.00
2018-03-04T14:01:04.186Z,11.00
2018-03-04T14:03:31.682Z,11.00
2018-03-04T14:23:03.322Z,11.00
2018-03-04T14:25:31.159Z,10.90
2018-03-04T14:28:05.384Z,10.90
2018-03-04T14:30:32.873Z,10.80
2018-03-04T14:35:54.455Z,10.60
2018-03-04T14:38:21.921Z,10.60
2018-03-04T14:40:49.917Z,10.60
2018-03-04T14:43:17.390Z,10.50
2018-03-04T14:48:35.294Z,10.50
2018-03-04T14:51:15.549Z,10.40
2018-03-04T14:53:43.004Z,10.40
2018-03-04T14:56:10.573Z,10.40
2018-03-04T14:58:38.029Z,10.40
2018-03-04T15:01:05.510Z,10.30
2018-03-04T15:03:33.057Z,10.30
2018-03-04T15:06:00.617Z,10.30
2018-03-04T15:08:28.230Z,10.30
2018-03-04T15:10:56.481Z,10.20
2018-03-04T15:13:24.052Z,10.20
2018-03-04T15:15:51.537Z,10.10
2018-03-04T15:18:18.981Z,10.10
2018-03-04T15:20:52.341Z,9.90
2018-03-04T15:23:19.840Z,9.90
2018-03-04T15:25:47.392Z,9.90
2018-03-04T15:28:15.596Z,9.80
2018-03-04T15:30:43.091Z,9.80
2018-03-04T15:33:10.567Z,9.70
2018-03-04T15:35:38.011Z,9.70
2018-03-04T15:38:05.777Z,9.70
2018-03-04T15:40:33.244Z,9.70
2018-03-04T15:43:00.750Z,9.60
2018-03-04T15:45:28.236Z,9.60
2018-03-04T15:47:55.757Z,9.50
2018-03-04T15:50:29.101Z,9.40
2018-03-04T15:52:56.589Z,9.40
2018-03-04T15:55:25.917Z,9.30
2018-03-04T15:57:53.494Z,9.30
2018-03-04T16:00:21.741Z,9.20
2018-03-04T16:02:49.310Z,9.20
2018-03-04T16:05:16.796Z,9.20
2018-03-04T16:13:34.217Z,9.00
2018-03-04T16:16:02.460Z,8.90
2018-03-04T16:18:30.317Z,8.90
2018-03-04T16:20:57.810Z,8.90
2018-03-04T16:23:26.102Z,8.80
2018-03-04T16:25:57.938Z,8.70
2018-03-04T16:28:25.397Z,8.70
2018-03-04T16:30:52.905Z,8.70
2018-03-04T16:33:21.130Z,8.60
2018-03-04T16:35:49.456Z,8.50
2018-03-04T16:38:16.956Z,8.50
2018-03-04T16:40:44.422Z,8.50
2018-03-04T16:43:11.972Z,8.50
2018-03-04T16:45:39.523Z,8.40
2018-03-04T16:48:07.029Z,8.40
2018-03-04T16:50:34.576Z,8.40
2018-03-04T16:53:02.840Z,8.30
2018-03-04T16:55:31.084Z,8.20
2018-03-04T16:57:58.720Z,8.20
2018-03-04T17:00:26.278Z,8.10
2018-03-04T17:02:53.792Z,8.10
2018-03-04T17:05:21.326Z,8.00
2018-03-04T17:07:48.817Z,7.90
2018-03-04T17:10:16.388Z,7.90
2018-03-04T17:12:44.685Z,7.80
2018-03-04T17:15:12.302Z,7.80
2018-03-04T17:17:39.822Z,7.70
2018-03-04T17:20:12.250Z,7.70
2018-03-04T17:22:39.773Z,7.60
2018-03-04T17:25:07.381Z,7.50
2018-03-04T17:27:36.077Z,7.30
2018-03-04T17:30:03.575Z,7.30
2018-03-04T17:32:31.458Z,7.30
2018-03-04T17:34:58.975Z,7.20
2018-03-04T17:37:27.302Z,7.20
2018-03-04T17:39:54.769Z,7.10
2018-03-04T17:42:22.332Z,7.10
2018-03-04T17:44:49.789Z,7.10
2018-03-04T17:47:17.325Z,7.00
2018-03-04T17:49:44.857Z,6.90
2018-03-04T17:52:12.376Z,6.80
2018-03-04T17:54:40.669Z,6.60
2018-03-04T18:02:55.101Z,6.40
2018-03-04T18:05:22.567Z,6.30
2018-03-04T18:07:50.163Z,6.30
2018-03-04T18:10:17.660Z,6.30
2018-03-04T18:12:45.279Z,6.20
2018-03-04T18:15:28.561Z,6.20
2018-03-04T18:17:56.017Z,6.20
2018-03-04T18:20:23.675Z,6.10
2018-03-04T18:22:52.552Z,6.10
2018-03-04T18:25:20.769Z,6.10
2018-03-04T18:30:38.821Z,6.00
2018-03-04T18:33:06.301Z,6.10
2018-03-04T18:35:33.762Z,6.10
2018-03-04T18:38:01.253Z,6.10
2018-03-04T18:40:28.714Z,6.00
2018-03-04T18:42:56.256Z,6.00
2018-03-04T18:45:24.461Z,6.00
2018-03-04T18:47:51.926Z,5.90
2018-03-04T18:50:19.647Z,6.00
2018-03-04T18:52:47.255Z,5.90
2018-03-04T18:55:14.696Z,6.00
2018-03-04T18:57:42.164Z,5.90
2018-03-04T19:03:00.426Z,6.00
2018-03-04T19:05:27.905Z,6.00
2018-03-04T19:07:55.396Z,6.00
2018-03-04T19:10:23.625Z,5.90
2018-03-04T19:12:51.506Z,5.90
2018-03-04T19:15:18.965Z,5.90
2018-03-04T19:17:46.559Z,5.90
2018-03-04T19:20:14.785Z,5.80
2018-03-04T19:22:42.293Z,5.80
2018-03-04T19:25:10.531Z,5.80
2018-03-04T19:27:38.001Z,5.80
2018-03-04T19:30:05.470Z,5.80
2018-03-04T19:32:32.950Z,5.80
2018-03-04T19:35:01.160Z,5.80
2018-03-04T19:37:28.784Z,5.80
2018-03-04T19:39:56.256Z,5.80
2018-03-04T19:42:23.769Z,5.90
2018-03-04T19:44:51.367Z,5.90
2018-03-04T19:47:18.854Z,5.90
2018-03-04T19:49:46.340Z,5.90
2018-03-04T19:52:13.958Z,5.90
2018-03-04T19:54:41.422Z,5.90
2018-03-04T19:57:08.912Z,5.90
2018-03-04T19:59:39.429Z,5.90
2018-03-04T20:02:06.888Z,5.90
2018-03-04T20:04:34.351Z,5.90
2018-03-04T20:07:01.850Z,5.90
2018-03-04T20:09:30.085Z,5.90
2018-03-04T20:11:57.561Z,5.90
2018-03-04T20:14:30.606Z,5.90
2018-03-04T20:16:58.838Z,5.90
2018-03-04T20:19:27.651Z,5.90
2018-03-04T20:21:55.901Z,5.90
2018-03-04T20:24:23.401Z,5.90
2018-03-04T20:26:50.921Z,5.90
2018-03-04T20:29:18.407Z,5.90
2018-03-04T20:31:46.483Z,5.90
2018-03-04T20:34:14.151Z,5.90
2018-03-04T20:36:41.767Z,5.90
2018-03-04T20:39:09.308Z,5.90
2018-03-04T20:41:36.899Z,5.90
2018-03-04T20:44:04.490Z,5.90
2018-03-04T20:46:32.077Z,5.90
2018-03-04T20:48:59.682Z,5.90
2018-03-04T20:51:27.324Z,5.90
2018-03-04T20:53:54.797Z,5.90
2018-03-04T20:56:22.269Z,6.00
2018-03-04T20:58:49.733Z,6.00
2018-03-04T21:18:21.425Z,6.10
2018-03-04T21:20:49.036Z,6.10
2018-03-04T21:23:18.794Z,6.10
2018-03-04T21:25:46.621Z,6.10
2018-03-04T21:28:15.134Z,6.20
2018-03-04T21:42:30.466Z,6.30
2018-03-04T21:44:57.951Z,6.30
2018-03-04T21:47:25.490Z,6.40
2018-03-04T21:49:53.757Z,6.40
2018-03-04T22:09:25.553Z,6.50
2018-03-04T22:28:58.116Z,6.50
2018-03-04T22:31:25.637Z,6.50
2018-03-04T22:33:53.145Z,6.50
2018-03-04T22:36:20.625Z,6.50
2018-03-04T22:38:48.109Z,6.50
2018-03-04T22:41:15.594Z,6.50
2018-03-04T23:00:47.738Z,6.50
2018-03-04T23:03:15.224Z,6.50
2018-03-04T23:05:42.876Z,6.50
2018-03-04T23:08:10.357Z,6.50
2018-03-04T23:24:51.814Z,6.50
2018-03-04T23:27:19.340Z,6.50
2018-03-04T23:29:47.669Z,6.50
2018-03-04T23:32:15.180Z,6.40
2018-03-04T23:34:43.417Z,6.50
2018-03-04T23:37:10.909Z,6.50
2018-03-04T23:39:39.153Z,6.40
2018-03-04T23:42:06.725Z,6.40
2018-03-04T23:44:34.210Z,6.40
2018-03-04T23:47:02.447Z,6.40
2018-03-04T23:49:29.921Z,6.40
2018-03-04T23:51:57.402Z,6.40
2018-03-04T23:54:25.641Z,6.30
2018-03-04T23:56:53.129Z,6.40
2018-03-04T23:59:20.585Z,6.30
